Time;durP1;ratioP1;P1;durP2;ratioP2;P2;SDS_P1;SDS_P2;PMS_P1;PMS_P2;Temp;Humidity;BMP_temperature;BMP_pressure;BME280_temperature;BME280_humidity;BME280_pressure;Samples;Min_cycle;Max_cycle;Signal;HPM_P1;HPM_P2
2023/10/26 00:01:24;;;;;;;13.07;9.38;;;10.80;99.90;;;;;;5095519;28;20036;-77
2023/10/26 00:03:49;;;;;;;15.68;11.07;;;10.80;99.90;;;;;;5096218;28;20043;-77
2023/10/26 00:06:15;;;;;;;19.45;12.35;;;10.80;99.90;;;;;;5095894;28;20046;-77
2023/10/26 00:08:41;;;;;;;18.73;11.65;;;10.70;99.90;;;;;;5095407;28;20032;-77
2023/10/26 00:11:06;;;;;;;17.23;11.57;;;10.80;99.90;;;;;;5095821;28;20127;-77
2023/10/26 00:13:32;;;;;;;15.65;11.23;;;10.80;99.90;;;;;;5095742;28;20554;-77
2023/10/26 00:15:58;;;;;;;19.65;12.80;;;10.80;99.90;;;;;;5095810;28;20047;-77
2023/10/26 00:18:23;;;;;;;20.63;12.68;;;10.80;99.90;;;;;;5078474;28;20176;-77
2023/10/26 00:20:55;;;;;;;19.52;13.15;;;10.70;99.90;;;;;;5095296;28;20066;-77
2023/10/26 00:23:21;;;;;;;22.38;13.27;;;10.70;99.90;;;;;;5095511;28;20059;-77
2023/10/26 00:25:46;;;;;;;18.15;11.57;;;10.80;99.90;;;;;;5095488;28;20036;-77
2023/10/26 00:28:12;;;;;;;18.08;12.73;;;10.70;99.90;;;;;;5095241;28;20040;-77
2023/10/26 00:30:38;;;;;;;19.70;12.88;;;10.70;99.90;;;;;;5095345;28;20043;-77
2023/10/26 00:33:03;;;;;;;18.55;13.27;;;10.70;99.90;;;;;;5078649;28;20071;-77
2023/10/26 00:35:29;;;;;;;19.75;13.57;;;10.60;99.90;;;;;;5095439;28;20069;-77
2023/10/26 00:37:54;;;;;;;20.98;13.32;;;10.50;99.90;;;;;;5094544;28;20055;-77
2023/10/26 00:40:20;;;;;;;21.50;14.18;;;10.60;99.90;;;;;;5095462;28;20050;-77
2023/10/26 00:42:45;;;;;;;21.63;13.98;;;10.60;99.90;;;;;;5095080;28;20051;-77
2023/10/26 00:45:11;;;;;;;23.38;15.02;;;10.50;99.90;;;;;;5095182;28;20035;-77
2023/10/26 00:47:37;;;;;;;24.80;15.40;;;10.60;99.90;;;;;;5094685;28;20047;-77
2023/10/26 00:50:03;;;;;;;26.92;15.88;;;10.50;99.90;;;;;;5095011;28;20071;-77
2023/10/26 00:52:29;;;;;;;28.23;17.27;;;10.50;99.90;;;;;;5094881;28;20069;-77
2023/10/26 00:54:56;;;;;;;28.15;17.00;;;10.50;99.90;;;;;;5078200;28;20039;-77
2023/10/26 00:57:24;;;;;;;27.73;17.92;;;10.50;99.90;;;;;;5094659;28;20430;-77
2023/10/26 00:59:51;;;;;;;32.70;18.65;;;10.50;99.90;;;;;;5094637;28;20050;-77
2023/10/26 01:02:19;;;;;;;34.72;18.88;;;10.50;99.90;;;;;;5094949;28;20406;-77
2023/10/26 01:04:45;;;;;;;30.95;20.77;;;10.50;99.90;;;;;;5094818;28;20506;-77
2023/10/26 01:07:11;;;;;;;32.72;19.95;;;10.50;99.90;;;;;;5094691;28;20046;-77
2023/10/26 01:09:36;;;;;;;34.58;22.27;;;10.50;99.90;;;;;;5094631;28;20066;-77
2023/10/26 01:12:02;;;;;;;36.50;22.33;;;10.60;99.90;;;;;;5094487;28;20113;-77
2023/10/26 01:14:28;;;;;;;34.58;23.13;;;10.50;99.90;;;;;;5094700;28;20047;-77
2023/10/26 01:16:55;;;;;;;38.63;22.90;;;10.50;99.90;;;;;;5094498;28;20502;-76
2023/10/26 01:19:20;;;;;;;37.53;23.08;;;10.60;99.90;;;;;;5094772;28;20047;-77
2023/10/26 01:21:51;;;;;;;38.38;23.90;;;10.60;99.90;;;;;;5094180;28;20131;-77
2023/10/26 01:24:17;;;;;;;38.28;23.95;;;10.50;99.90;;;;;;5094220;28;20051;-77
2023/10/26 01:26:43;;;;;;;38.58;24.60;;;10.50;99.90;;;;;;5094040;28;20040;-77
2023/10/26 01:29:09;;;;;;;44.92;24.80;;;10.50;99.90;;;;;;5094047;28;20040;-77
2023/10/26 01:31:35;;;;;;;41.33;26.50;;;10.60;99.90;;;;;;5094360;28;20043;-77
2023/10/26 01:34:00;;;;;;;43.55;25.35;;;10.50;99.90;;;;;;5077584;28;20368;-77
2023/10/26 01:36:26;;;;;;;42.85;26.42;;;10.60;99.90;;;;;;5094054;28;20491;-77
2023/10/26 01:38:52;;;;;;;45.03;26.52;;;10.60;99.90;;;;;;5094044;28;20044;-77
2023/10/26 01:41:17;;;;;;;47.38;28.65;;;10.60;99.90;;;;;;5094134;28;20073;-77
2023/10/26 01:43:43;;;;;;;49.22;27.50;;;10.60;99.90;;;;;;5077228;28;20047;-77
2023/10/26 01:46:08;;;;;;;44.88;27.30;;;10.60;99.90;;;;;;5094031;28;20411;-77
2023/10/26 01:48:34;;;;;;;44.38;27.90;;;10.50;99.90;;;;;;5093631;28;20031;-77
2023/10/26 01:51:00;;;;;;;48.67;26.90;;;10.60;99.90;;;;;;5111690;28;20501;-77
2023/10/26 01:53:26;;;;;;;42.25;26.52;;;10.60;99.90;;;;;;5094157;28;20043;-77
2023/10/26 01:55:52;;;;;;;44.22;26.67;;;10.60;99.90;;;;;;5093939;28;20058;-76
2023/10/26 01:58:18;;;;;;;46.60;26.08;;;10.60;99.90;;;;;;5093660;28;20134;-77
2023/10/26 02:00:43;;;;;;;47.30;27.38;;;10.60;99.90;;;;;;5093589;28;20038;-77
2023/10/26 02:03:09;;;;;;;42.83;26.90;;;10.60;99.90;;;;;;5093105;28;20441;-77
2023/10/26 02:05:34;;;;;;;45.70;27.83;;;10.70;99.90;;;;;;5093732;28;20039;-77
2023/10/26 02:08:00;;;;;;;39.95;24.63;;;10.60;99.90;;;;;;5093656;28;20036;-77
2023/10/26 02:10:29;;;;;;;46.28;26.45;;;10.60;99.90;;;;;;5093746;28;20075;-77
2023/10/26 02:12:58;;;;;;;47.55;29.38;;;10.70;99.90;;;;;;5093581;28;20075;-77
2023/10/26 02:15:23;;;;;;;44.05;27.08;;;10.60;99.90;;;;;;5076974;28;20036;-77
2023/10/26 02:17:49;;;;;;;42.47;26.23;;;10.60;99.90;;;;;;5076930;28;20046;-77
2023/10/26 02:20:14;;;;;;;44.67;26.05;;;10.60;99.90;;;;;;5094175;28;20494;-77
2023/10/26 02:22:40;;;;;;;47.83;25.45;;;10.70;99.90;;;;;;5093851;28;20096;-77
2023/10/26 02:25:06;;;;;;;41.13;25.40;;;10.70;99.90;;;;;;5093497;28;20522;-77
2023/10/26 02:27:32;;;;;;;43.90;27.92;;;10.60;99.90;;;;;;5093574;28;20509;-77
2023/10/26 02:29:58;;;;;;;43.17;26.30;;;10.70;99.90;;;;;;5093303;28;20032;-77
2023/10/26 02:32:24;;;;;;;43.83;26.63;;;10.60;99.90;;;;;;5093414;28;20119;-77
2023/10/26 02:34:49;;;;;;;47.65;25.33;;;10.60;99.90;;;;;;5093824;28;20119;-77
2023/10/26 02:37:17;;;;;;;45.45;27.10;;;10.60;99.90;;;;;;5093296;28;20040;-77
2023/10/26 02:39:43;;;;;;;47.72;27.83;;;10.70;99.90;;;;;;5076489;28;20647;-77
2023/10/26 02:42:09;;;;;;;46.90;26.20;;;10.60;99.90;;;;;;5093640;28;20055;-77
2023/10/26 02:44:35;;;;;;;40.42;24.90;;;10.60;99.90;;;;;;5093398;28;20093;-77
2023/10/26 02:47:00;;;;;;;41.80;26.27;;;10.60;99.90;;;;;;5075868;28;20035;-77
2023/10/26 02:49:26;;;;;;;43.85;27.02;;;10.60;99.90;;;;;;5093366;28;20152;-77
2023/10/26 02:51:51;;;;;;;47.03;27.02;;;10.60;99.90;;;;;;5093352;28;20039;-77
2023/10/26 02:54:17;;;;;;;42.67;24.60;;;10.60;99.90;;;;;;5092131;28;20035;-77
2023/10/26 02:56:42;;;;;;;39.67;25.42;;;10.60;99.90;;;;;;5093155;28;20085;-77
2023/10/26 02:59:08;;;;;;;41.03;25.55;;;10.60;99.90;;;;;;5111409;28;20039;-77
2023/10/26 03:01:34;;;;;;;42.38;24.80;;;10.70;99.90;;;;;;5095876;28;20042;-76
2023/10/26 03:04:04;;;;;;;35.75;23.27;;;10.60;99.90;;;;;;5097053;28;20031;-76
2023/10/26 03:06:36;;;;;;;36.50;23.27;;;10.70;99.90;;;;;;5096905;28;20044;-77
2023/10/26 03:09:02;;;;;;;38.30;23.57;;;10.70;99.90;;;;;;5097040;28;20097;-76
2023/10/26 03:11:28;;;;;;;39.03;24.30;;;10.60;99.90;;;;;;5079837;28;20050;-77
2023/10/26 03:13:54;;;;;;;47.65;24.73;;;10.70;99.90;;;;;;5114761;28;20024;-76
2023/10/26 03:16:19;;;;;;;37.58;24.92;;;10.60;99.90;;;;;;5096870;28;20545;-76
2023/10/26 03:18:45;;;;;;;39.72;22.55;;;10.60;99.90;;;;;;5096704;28;20501;-76
2023/10/26 03:21:10;;;;;;;35.38;23.10;;;10.60;99.90;;;;;;5091707;28;20039;-76
2023/10/26 03:23:36;;;;;;;39.75;24.98;;;10.60;99.90;;;;;;5087734;28;20043;-77
2023/10/26 03:26:02;;;;;;;37.45;22.85;;;10.60;99.90;;;;;;5096544;28;20052;-77
2023/10/26 03:28:28;;;;;;;38.45;23.10;;;10.60;99.90;;;;;;5096457;28;20036;-77
2023/10/26 03:30:53;;;;;;;35.50;22.88;;;10.60;99.90;;;;;;5096214;28;20495;-77
2023/10/26 03:33:19;;;;;;;38.58;23.40;;;10.50;99.90;;;;;;5096427;28;20054;-76
2023/10/26 03:35:44;;;;;;;39.53;24.13;;;10.50;99.90;;;;;;5096476;28;20047;-76
2023/10/26 03:38:10;;;;;;;41.63;24.98;;;10.50;99.90;;;;;;5096235;28;20047;-76
2023/10/26 03:40:35;;;;;;;38.53;23.30;;;10.50;99.90;;;;;;5096171;28;20081;-76
2023/10/26 03:43:01;;;;;;;38.60;23.55;;;10.50;99.90;;;;;;5096039;28;20462;-76
2023/10/26 03:45:28;;;;;;;40.72;24.10;;;10.60;99.90;;;;;;5071181;28;20043;-76
2023/10/26 03:47:54;;;;;;;38.25;23.13;;;10.50;99.90;;;;;;5092894;28;20608;-76
2023/10/26 03:50:20;;;;;;;43.33;23.95;;;10.40;99.90;;;;;;5075706;28;20043;-77
2023/10/26 03:52:46;;;;;;;42.03;24.77;;;10.50;99.90;;;;;;5075609;28;20114;-76
2023/10/26 03:55:11;;;;;;;37.38;22.70;;;10.50;99.90;;;;;;5075871;28;20048;-76
2023/10/26 03:57:37;;;;;;;39.03;24.27;;;10.50;99.90;;;;;;5075533;28;20048;-76
2023/10/26 04:00:03;;;;;;;44.55;25.08;;;10.50;99.90;;;;;;5075987;28;20407;-76
2023/10/26 04:02:29;;;;;;;45.63;26.52;;;10.40;99.90;;;;;;5075279;28;20036;-76
2023/10/26 04:04:55;;;;;;;41.30;24.17;;;10.40;99.90;;;;;;5093639;28;20036;-76
2023/10/26 04:07:21;;;;;;;45.83;25.08;;;10.40;99.90;;;;;;5093518;28;20115;-76
2023/10/26 04:09:46;;;;;;;43.58;24.58;;;10.40;99.90;;;;;;5075178;28;20039;-76
2023/10/26 04:12:12;;;;;;;41.63;24.65;;;10.40;99.90;;;;;;5058111;28;20090;-77
2023/10/26 04:14:38;;;;;;;39.72;24.25;;;10.50;99.90;;;;;;5075353;28;20066;-76
2023/10/26 04:17:05;;;;;;;39.78;23.80;;;10.40;99.90;;;;;;5075360;28;20036;-77
2023/10/26 04:19:33;;;;;;;45.38;24.67;;;10.40;99.90;;;;;;5075310;28;20661;-77
2023/10/26 04:21:59;;;;;;;46.63;27.23;;;10.40;99.90;;;;;;5058555;28;20040;-77
2023/10/26 04:24:25;;;;;;;50.28;24.42;;;10.40;99.90;;;;;;5075507;28;20058;-77
2023/10/26 04:26:50;;;;;;;40.63;23.02;;;10.50;99.90;;;;;;5075363;28;20133;-77
2023/10/26 04:29:18;;;;;;;41.60;24.98;;;10.50;99.90;;;;;;5080269;28;20537;-76
2023/10/26 04:31:44;;;;;;;40.95;23.50;;;10.40;99.90;;;;;;5095279;28;20118;-77
2023/10/26 04:34:09;;;;;;;40.22;22.75;;;10.50;99.90;;;;;;5095613;28;20071;-77
2023/10/26 04:36:35;;;;;;;35.17;21.95;;;10.50;99.90;;;;;;5095310;28;20036;-77
2023/10/26 04:39:01;;;;;;;37.25;22.90;;;10.50;99.90;;;;;;5095457;28;20039;-77
2023/10/26 04:41:26;;;;;;;38.40;22.17;;;10.50;99.90;;;;;;5113283;28;20038;-77
2023/10/26 04:43:52;;;;;;;40.22;24.42;;;10.60;99.90;;;;;;5078437;28;20126;-77
2023/10/26 04:46:17;;;;;;;44.95;24.63;;;10.50;99.90;;;;;;5095125;28;20040;-77
2023/10/26 04:48:43;;;;;;;38.95;22.73;;;10.50;99.90;;;;;;5095016;28;20044;-77
2023/10/26 04:51:08;;;;;;;38.50;23.52;;;10.50;99.90;;;;;;5094908;28;20043;-77
2023/10/26 04:53:34;;;;;;;41.53;23.13;;;10.60;99.90;;;;;;5095047;28;20031;-77
2023/10/26 04:55:59;;;;;;;43.00;24.77;;;10.50;99.90;;;;;;5094994;28;20490;-77
2023/10/26 04:58:25;;;;;;;39.90;23.90;;;10.50;99.90;;;;;;5094886;28;20031;-77
2023/10/26 05:00:51;;;;;;;39.30;23.77;;;10.50;99.90;;;;;;5112958;28;20046;-77
2023/10/26 05:03:16;;;;;;;45.67;25.05;;;10.60;99.90;;;;;;5094825;28;20039;-77
2023/10/26 05:05:42;;;;;;;39.92;22.33;;;10.50;99.90;;;;;;5094667;28;20128;-77
2023/10/26 05:08:07;;;;;;;39.17;24.77;;;10.50;99.90;;;;;;5095087;28;20097;-77
2023/10/26 05:10:34;;;;;;;42.88;24.25;;;10.40;99.90;;;;;;5094913;28;20075;-77
2023/10/26 05:12:59;;;;;;;40.72;23.42;;;10.50;99.90;;;;;;5094576;28;20085;-77
2023/10/26 05:15:25;;;;;;;41.72;25.17;;;10.40;99.90;;;;;;5094923;28;20040;-77
2023/10/26 05:17:51;;;;;;;43.13;24.92;;;10.40;99.90;;;;;;5094247;28;20058;-77
2023/10/26 05:20:16;;;;;;;42.05;23.25;;;10.40;99.90;;;;;;5077541;28;20082;-77
2023/10/26 05:22:42;;;;;;;41.47;23.08;;;10.40;99.90;;;;;;5094477;28;20039;-77
2023/10/26 05:25:10;;;;;;;45.03;24.75;;;10.50;99.90;;;;;;5094155;28;20092;-77
2023/10/26 05:27:36;;;;;;;44.30;24.60;;;10.30;99.90;;;;;;5094067;28;20040;-77
2023/10/26 05:30:02;;;;;;;43.40;23.80;;;10.30;99.90;;;;;;5094473;28;20031;-77
2023/10/26 05:32:28;;;;;;;40.47;24.20;;;10.30;99.90;;;;;;5094012;28;20502;-77
2023/10/26 05:34:54;;;;;;;39.97;23.60;;;10.30;99.90;;;;;;5077445;28;20084;-77
2023/10/26 05:37:20;;;;;;;42.60;24.08;;;10.30;99.90;;;;;;5093999;28;20036;-77
2023/10/26 05:39:45;;;;;;;40.45;24.20;;;10.30;99.90;;;;;;5094169;28;20046;-77
2023/10/26 05:42:11;;;;;;;39.72;23.65;;;10.40;99.90;;;;;;5094363;28;20039;-77
2023/10/26 05:44:36;;;;;;;42.42;23.85;;;10.30;99.90;;;;;;5094084;28;20495;-77
2023/10/26 05:47:02;;;;;;;42.92;24.92;;;10.40;99.90;;;;;;5093854;28;20039;-77
2023/10/26 05:49:27;;;;;;;40.08;22.73;;;10.40;99.90;;;;;;5093945;28;20051;-77
2023/10/26 05:51:53;;;;;;;42.05;24.88;;;10.30;99.90;;;;;;5094030;28;20067;-77
2023/10/26 05:54:20;;;;;;;43.05;24.02;;;10.30;99.90;;;;;;5094007;28;20092;-77
2023/10/26 05:56:45;;;;;;;42.83;24.70;;;10.30;99.90;;;;;;5093738;28;20046;-77
2023/10/26 05:59:11;;;;;;;38.35;23.48;;;10.20;99.90;;;;;;5093871;28;20036;-77
2023/10/26 06:01:36;;;;;;;44.90;23.90;;;10.20;99.90;;;;;;5076795;28;20126;-77
2023/10/26 06:04:02;;;;;;;42.47;25.63;;;10.20;99.90;;;;;;5095638;28;20046;-76
2023/10/26 06:06:27;;;;;;;40.30;23.45;;;10.20;99.90;;;;;;5099008;28;20039;-78
2023/10/26 06:08:53;;;;;;;42.80;23.30;;;10.20;99.90;;;;;;5098139;28;20502;-77
2023/10/26 06:11:18;;;;;;;40.65;25.50;;;10.20;99.90;;;;;;5093896;28;20039;-77
2023/10/26 06:13:44;;;;;;;43.58;24.77;;;10.30;99.90;;;;;;5093595;28;20032;-77
2023/10/26 06:16:13;;;;;;;42.45;25.58;;;10.30;99.90;;;;;;5076852;28;20036;-77
2023/10/26 06:18:39;;;;;;;43.25;25.23;;;10.30;99.90;;;;;;5092940;28;20643;-77
2023/10/26 06:21:05;;;;;;;44.92;25.52;;;10.30;99.90;;;;;;5076487;28;20035;-77
2023/10/26 06:23:30;;;;;;;39.67;23.67;;;10.20;99.90;;;;;;5093459;28;20057;-77
2023/10/26 06:26:00;;;;;;;44.42;24.60;;;10.30;99.90;;;;;;5093396;28;20417;-77
2023/10/26 06:28:27;;;;;;;53.85;28.25;;;10.30;99.90;;;;;;5093675;28;20621;-77
2023/10/26 06:30:55;;;;;;;56.20;28.77;;;10.30;99.90;;;;;;5111565;28;20047;-77
2023/10/26 06:33:21;;;;;;;59.08;29.42;;;10.30;99.90;;;;;;5095734;28;20044;-77
2023/10/26 06:35:47;;;;;;;56.95;29.48;;;10.40;99.90;;;;;;5113415;28;20039;-77
2023/10/26 06:38:13;;;;;;;61.92;32.92;;;10.30;99.90;;;;;;5116147;28;20071;-78
2023/10/26 06:40:39;;;;;;;59.05;30.38;;;10.40;99.90;;;;;;5097882;28;20066;-79
2023/10/26 06:43:04;;;;;;;64.40;32.00;;;10.40;99.90;;;;;;5098711;28;20035;-78
2023/10/26 06:45:30;;;;;;;59.15;30.40;;;10.40;99.90;;;;;;5081010;28;20082;-77
2023/10/26 06:47:56;;;;;;;58.67;30.83;;;10.30;99.90;;;;;;5098102;28;20039;-77
2023/10/26 06:50:23;;;;;;;58.22;30.17;;;10.30;99.90;;;;;;5081479;28;20039;-78
2023/10/26 06:52:48;;;;;;;54.97;29.20;;;10.20;99.90;;;;;;5080892;28;20035;-77
2023/10/26 06:55:17;;;;;;;56.40;31.00;;;10.30;99.90;;;;;;5097226;28;20054;-77
2023/10/26 06:57:43;;;;;;;57.65;29.38;;;10.30;99.90;;;;;;5098235;28;20093;-76
2023/10/26 07:00:09;;;;;;;59.97;29.92;;;10.30;99.90;;;;;;5097452;28;20089;-77
2023/10/26 07:02:36;;;;;;;56.55;28.90;;;10.30;99.90;;;;;;5079169;28;20032;-78
2023/10/26 07:05:05;;;;;;;57.83;29.27;;;10.30;99.90;;;;;;5096637;28;20071;-76
2023/10/26 07:07:35;;;;;;;63.63;30.95;;;10.30;99.90;;;;;;5115317;28;20039;-77
2023/10/26 07:10:01;;;;;;;52.75;29.08;;;10.30;99.90;;;;;;5097139;28;20036;-76
2023/10/26 07:12:26;;;;;;;54.35;29.95;;;10.40;99.90;;;;;;5097505;28;20093;-77
2023/10/26 07:14:54;;;;;;;54.22;27.65;;;10.40;99.90;;;;;;5096980;28;20574;-75
2023/10/26 07:17:25;;;;;;;48.88;27.50;;;10.30;99.90;;;;;;5096920;28;20403;-75
2023/10/26 07:19:51;;;;;;;48.92;27.23;;;10.40;99.90;;;;;;5096737;28;20044;-75
2023/10/26 07:22:16;;;;;;;49.97;29.38;;;10.40;99.90;;;;;;5114969;28;20484;-75
2023/10/26 07:24:42;;;;;;;51.35;27.55;;;10.40;99.90;;;;;;5096715;28;20044;-75
2023/10/26 07:27:08;;;;;;;47.28;26.35;;;10.50;99.90;;;;;;5084095;28;20044;-75
2023/10/26 07:29:33;;;;;;;47.92;29.33;;;10.60;99.90;;;;;;5094525;28;20032;-75
2023/10/26 07:31:59;;;;;;;56.78;29.52;;;10.50;99.90;;;;;;5076267;28;20075;-75
2023/10/26 07:34:25;;;;;;;50.70;27.42;;;10.50;99.90;;;;;;5076509;28;20044;-76
2023/10/26 07:36:51;;;;;;;52.58;25.38;;;10.50;99.90;;;;;;5094398;28;20441;-77
2023/10/26 07:39:16;;;;;;;47.88;25.75;;;10.50;99.90;;;;;;5080653;28;20039;-76
2023/10/26 07:41:45;;;;;;;47.17;26.30;;;10.50;99.90;;;;;;5078467;28;20044;-77
2023/10/26 07:44:12;;;;;;;49.97;25.55;;;10.50;99.90;;;;;;5087771;28;20027;-77
2023/10/26 07:46:37;;;;;;;46.38;24.52;;;10.50;99.90;;;;;;5095463;28;20043;-78
2023/10/26 07:49:03;;;;;;;56.80;27.98;;;10.40;99.90;;;;;;5096193;28;20039;-77
2023/10/26 07:51:28;;;;;;;50.85;26.88;;;10.40;99.90;;;;;;5096004;28;20494;-78
2023/10/26 07:53:54;;;;;;;54.13;26.08;;;10.40;99.90;;;;;;5096281;28;20043;-77
2023/10/26 07:56:20;;;;;;;53.92;25.73;;;10.40;99.90;;;;;;5114181;28;20038;-78
2023/10/26 07:58:45;;;;;;;45.95;24.85;;;10.30;99.90;;;;;;5096121;28;20071;-78
2023/10/26 08:01:12;;;;;;;48.22;25.38;;;10.30;99.90;;;;;;5114098;28;20071;-78
2023/10/26 08:03:38;;;;;;;48.38;24.10;;;10.30;99.90;;;;;;5095977;28;20084;-77
2023/10/26 08:06:05;;;;;;;40.10;22.25;;;10.30;99.90;;;;;;5095982;28;20431;-78
2023/10/26 08:08:30;;;;;;;47.17;25.10;;;10.30;99.90;;;;;;5078986;28;20100;-75
2023/10/26 08:11:06;;;;;;;45.13;22.80;;;10.20;99.90;;;;;;5113854;28;20032;-77
2023/10/26 08:13:31;;;;;;;44.05;23.73;;;10.30;99.90;;;;;;5114297;28;20035;-77
2023/10/26 08:15:57;;;;;;;39.10;21.50;;;10.10;99.90;;;;;;5095948;28;20035;-77
2023/10/26 08:18:25;;;;;;;44.75;23.40;;;10.20;99.90;;;;;;5095606;28;20563;-77
2023/10/26 08:20:52;;;;;;;41.72;22.27;;;10.30;99.90;;;;;;5095486;28;20043;-78
2023/10/26 08:23:18;;;;;;;39.95;22.17;;;10.20;99.90;;;;;;5095368;28;20044;-78
2023/10/26 08:25:43;;;;;;;35.85;21.02;;;10.30;99.90;;;;;;5078698;28;20521;-78
2023/10/26 08:28:09;;;;;;;39.90;22.50;;;10.20;99.90;;;;;;5095501;28;20039;-77
2023/10/26 08:30:34;;;;;;;37.70;21.15;;;10.10;99.90;;;;;;5095682;28;20096;-78
2023/10/26 08:33:04;;;;;;;39.90;20.95;;;10.20;99.90;;;;;;5095291;28;20039;-78
2023/10/26 08:35:30;;;;;;;42.13;22.08;;;10.20;99.90;;;;;;5078523;28;20039;-78
2023/10/26 08:37:55;;;;;;;36.53;20.60;;;10.20;99.90;;;;;;5119362;22;20050;-77
2023/10/26 08:40:21;;;;;;;35.47;20.40;;;10.30;99.90;;;;;;5093569;28;20032;-75
2023/10/26 08:42:47;;;;;;;39.95;21.98;;;10.20;99.90;;;;;;5074754;28;20081;-74
2023/10/26 08:45:24;;;;;;;37.42;21.58;;;10.30;99.90;;;;;;5092534;28;20036;-75
2023/10/26 08:47:51;;;;;;;43.05;23.33;;;10.20;99.90;;;;;;5101845;28;20034;-74
2023/10/26 08:50:21;;;;;;;40.40;21.92;;;10.30;99.90;;;;;;5112979;28;20123;-76
2023/10/26 08:52:48;;;;;;;46.03;24.30;;;10.30;99.90;;;;;;5093171;28;20036;-75
2023/10/26 08:55:13;;;;;;;42.90;22.90;;;10.30;99.90;;;;;;5111608;28;20078;-75
2023/10/26 08:57:54;;;;;;;39.90;23.20;;;10.30;99.90;;;;;;5110110;28;20127;-74
2023/10/26 09:00:20;;;;;;;43.58;23.65;;;10.30;99.90;;;;;;5111944;28;20106;-75
2023/10/26 09:02:47;;;;;;;41.83;21.73;;;10.30;99.90;;;;;;5112041;28;20461;-75
2023/10/26 09:05:14;;;;;;;41.45;22.95;;;10.30;99.90;;;;;;5111946;28;20453;-75
2023/10/26 09:07:40;;;;;;;44.58;23.08;;;10.30;99.90;;;;;;5094830;28;20410;-74
2023/10/26 09:10:06;;;;;;;46.90;22.85;;;10.40;99.90;;;;;;5111648;28;20164;-75
2023/10/26 09:12:32;;;;;;;45.65;24.50;;;10.40;99.90;;;;;;5094745;28;20126;-75
2023/10/26 09:15:06;;;;;;;46.53;26.05;;;10.40;99.90;;;;;;5111979;28;20123;-77
2023/10/26 09:17:33;;;;;;;46.60;25.13;;;10.50;99.90;;;;;;5094721;28;20039;-75
2023/10/26 09:20:13;;;;;;;43.97;25.58;;;10.40;99.90;;;;;;5111512;28;20035;-75
2023/10/26 09:22:40;;;;;;;46.80;25.17;;;10.40;99.90;;;;;;5111411;28;20092;-75
2023/10/26 09:25:15;;;;;;;38.47;23.20;;;10.40;99.90;;;;;;5094475;28;20048;-75
2023/10/26 09:27:42;;;;;;;43.15;23.77;;;10.40;99.90;;;;;;5094599;28;20040;-74
2023/10/26 09:30:28;;;;;;;41.22;23.45;;;10.40;99.90;;;;;;5112773;28;20061;-74
2023/10/26 09:32:56;;;;;;;45.15;24.02;;;10.40;99.90;;;;;;5111374;28;20039;-75
2023/10/26 09:35:26;;;;;;;41.20;22.80;;;10.40;99.90;;;;;;5111243;28;20130;-75
2023/10/26 09:37:52;;;;;;;45.75;23.00;;;10.50;99.90;;;;;;5094080;28;20035;-75
2023/10/26 09:40:20;;;;;;;41.95;22.95;;;10.50;99.90;;;;;;5111415;28;20431;-75
2023/10/26 09:42:47;;;;;;;40.58;23.25;;;10.60;99.90;;;;;;5111432;28;20449;-76
2023/10/26 09:45:12;;;;;;;40.17;23.95;;;10.60;99.90;;;;;;5111127;28;20042;-75
2023/10/26 09:47:38;;;;;;;41.10;23.05;;;10.70;99.90;;;;;;5111091;28;20402;-74
2023/10/26 09:50:05;;;;;;;38.47;23.63;;;10.70;99.90;;;;;;5112280;28;20384;-75
2023/10/26 09:52:31;;;;;;;39.88;23.95;;;10.70;99.90;;;;;;5112305;28;20065;-75
2023/10/26 09:54:57;;;;;;;43.58;23.48;;;10.80;99.90;;;;;;5111248;28;20043;-75
2023/10/26 09:57:30;;;;;;;39.47;23.17;;;10.90;99.90;;;;;;5111278;28;20048;-74
2023/10/26 09:59:58;;;;;;;38.28;23.85;;;10.90;99.90;;;;;;5112364;28;20040;-75
2023/10/26 10:02:24;;;;;;;40.22;23.13;;;10.90;99.90;;;;;;5110879;28;20118;-75
2023/10/26 10:04:50;;;;;;;39.67;23.42;;;11.00;99.90;;;;;;5110258;28;20114;-76
2023/10/26 10:07:17;;;;;;;35.72;22.23;;;11.00;99.90;;;;;;5112190;28;20058;-75
2023/10/26 10:10:00;;;;;;;38.25;22.10;;;11.10;99.90;;;;;;5111809;28;20044;-75
2023/10/26 10:12:26;;;;;;;36.85;23.50;;;11.20;99.90;;;;;;5110215;28;20039;-75
2023/10/26 10:14:51;;;;;;;40.83;24.13;;;11.20;99.90;;;;;;5110171;28;20111;-75
2023/10/26 10:17:22;;;;;;;40.05;24.60;;;11.20;99.90;;;;;;5110353;28;20205;-75
2023/10/26 10:20:08;;;;;;;39.60;23.88;;;11.20;99.90;;;;;;5111537;28;20502;-75
2023/10/26 10:22:37;;;;;;;38.92;24.08;;;11.20;99.90;;;;;;5109255;28;20047;-75
2023/10/26 10:25:03;;;;;;;36.00;22.08;;;11.20;99.90;;;;;;5112125;28;20065;-75
2023/10/26 10:27:28;;;;;;;36.65;22.42;;;11.20;99.90;;;;;;5111124;28;20502;-75
2023/10/26 10:30:02;;;;;;;37.78;21.55;;;11.20;99.90;;;;;;5112495;28;20116;-75
2023/10/26 10:32:46;;;;;;;40.95;23.23;;;11.20;99.90;;;;;;5111711;28;20130;-75
2023/10/26 10:35:43;;;;;;;35.03;23.00;;;11.30;99.90;;;;;;5112084;28;20047;-76
2023/10/26 10:38:15;;;;;;;36.92;22.08;;;11.20;99.90;;;;;;5102439;28;20062;-74
2023/10/26 10:40:59;;;;;;;37.67;23.77;;;11.10;99.90;;;;;;5111924;28;20048;-76
2023/10/26 10:43:40;;;;;;;44.65;24.88;;;11.20;99.90;;;;;;5110698;28;20048;-75
2023/10/26 10:46:12;;;;;;;46.90;27.33;;;11.10;99.90;;;;;;5111738;28;20050;-75
2023/10/26 10:49:14;;;;;;;50.63;27.42;;;11.10;99.90;;;;;;5111908;28;20067;-75
2023/10/26 10:51:42;;;;;;;47.67;28.63;;;11.10;99.90;;;;;;5047446;28;20056;-74
2023/10/26 10:54:10;;;;;;;47.40;26.70;;;11.10;99.90;;;;;;5091707;28;20127;-75
2023/10/26 10:56:40;;;;;;;45.40;26.10;;;11.00;99.90;;;;;;5111195;28;20040;-75
2023/10/26 10:59:22;;;;;;;45.35;26.75;;;11.00;99.90;;;;;;5099506;28;20564;-75
2023/10/26 11:02:09;;;;;;;49.15;28.20;;;11.00;99.90;;;;;;5091181;28;20036;-75
2023/10/26 11:04:35;;;;;;;47.25;26.90;;;11.00;99.90;;;;;;5091246;28;20130;-77
2023/10/26 11:07:01;;;;;;;45.75;26.77;;;11.00;99.90;;;;;;5090216;28;20123;-75
2023/10/26 11:09:37;;;;;;;49.95;27.35;;;11.00;99.90;;;;;;5090260;28;20079;-75
2023/10/26 11:12:10;;;;;;;50.00;27.05;;;10.90;99.90;;;;;;5090137;28;20040;-75
2023/10/26 11:14:36;;;;;;;47.90;27.33;;;10.90;99.90;;;;;;5090351;28;20083;-74
2023/10/26 11:17:02;;;;;;;52.42;29.42;;;10.90;99.90;;;;;;5091242;28;20060;-75
2023/10/26 11:19:27;;;;;;;54.83;27.73;;;11.00;99.90;;;;;;5089863;28;20406;-74
2023/10/26 11:21:56;;;;;;;46.60;25.98;;;11.00;99.90;;;;;;5092391;28;20040;-75
2023/10/26 11:24:31;;;;;;;53.13;29.52;;;11.00;99.90;;;;;;5094896;28;20040;-74
2023/10/26 11:27:06;;;;;;;48.10;28.42;;;11.00;99.90;;;;;;5093429;28;20044;-75
2023/10/26 11:29:31;;;;;;;52.28;29.48;;;11.00;99.90;;;;;;5094643;28;20028;-75
2023/10/26 11:31:57;;;;;;;49.03;29.50;;;11.00;99.90;;;;;;5094329;28;20036;-75
2023/10/26 11:34:25;;;;;;;55.15;29.77;;;11.00;99.90;;;;;;5094745;28;20036;-74
2023/10/26 11:36:52;;;;;;;50.75;28.05;;;11.10;99.90;;;;;;5094662;28;20036;-74
2023/10/26 11:39:18;;;;;;;49.55;30.40;;;10.90;99.90;;;;;;5093085;28;20044;-74
2023/10/26 11:41:55;;;;;;;53.55;29.98;;;11.00;99.90;;;;;;5093052;28;20059;-75
2023/10/26 11:44:25;;;;;;;51.05;30.95;;;11.00;99.90;;;;;;5094358;28;20040;-75
2023/10/26 11:47:00;;;;;;;51.47;28.80;;;11.10;99.90;;;;;;5093031;28;20079;-74
2023/10/26 11:49:40;;;;;;;45.95;27.63;;;11.10;99.90;;;;;;5093257;28;20497;-75
2023/10/26 11:52:06;;;;;;;48.20;26.75;;;11.10;99.90;;;;;;5094579;28;20036;-77
2023/10/26 11:54:31;;;;;;;51.50;27.85;;;11.20;99.90;;;;;;5093224;28;20404;-76
2023/10/26 11:56:57;;;;;;;49.88;29.85;;;11.30;99.90;;;;;;5076185;28;20047;-75
2023/10/26 11:59:23;;;;;;;47.70;29.05;;;11.20;99.90;;;;;;5092850;28;20040;-76
2023/10/26 12:01:48;;;;;;;51.03;29.10;;;11.30;99.90;;;;;;5092549;28;20040;-75
2023/10/26 12:04:14;;;;;;;45.10;28.25;;;11.30;99.90;;;;;;5098251;28;20057;-76
2023/10/26 12:06:39;;;;;;;50.70;30.83;;;11.30;99.90;;;;;;5103322;28;20076;-76
2023/10/26 12:09:06;;;;;;;49.78;30.05;;;11.30;99.90;;;;;;5102226;28;20114;-76
2023/10/26 12:11:32;;;;;;;50.83;30.33;;;11.30;99.90;;;;;;5094366;28;20136;-77
2023/10/26 12:13:58;;;;;;;51.58;30.30;;;11.40;99.90;;;;;;5094406;28;20063;-76
2023/10/26 12:16:24;;;;;;;58.97;32.13;;;11.40;99.90;;;;;;5113103;28;20494;-76
2023/10/26 12:18:51;;;;;;;54.03;30.20;;;11.40;99.90;;;;;;5095504;28;20486;-76
2023/10/26 12:21:17;;;;;;;52.05;29.15;;;11.40;99.90;;;;;;5112009;28;20138;-76
2023/10/26 12:23:42;;;;;;;57.45;31.15;;;11.40;99.90;;;;;;5112581;28;20074;-75
2023/10/26 12:26:08;;;;;;;50.78;30.50;;;11.40;99.90;;;;;;5112643;28;20054;-75
2023/10/26 12:28:34;;;;;;;57.33;32.38;;;11.40;99.90;;;;;;5103628;28;20574;-76